Time;durP1;ratioP1;P1;durP2;ratioP2;P2;SDS_P1;SDS_P2;PMS_P1;PMS_P2;Temp;Humidity;BMP_temperature;BMP_pressure;BME280_temperature;BME280_humidity;BME280_pressure;Samples;Min_cycle;Max_cycle;Signal;HPM_P1;HPM_P2
2023/09/30 00:01:40;;;;;;;;;;;;;;;24.40;31.12;100959.14;109066;1267;67024;-89
2023/09/30 00:04:07;;;;;;;;;;;;;;;24.40;31.06;100955.14;109052;1265;67564;-88
2023/09/30 00:06:32;;;;;;;;;;;;;;;24.39;30.99;100951.84;108998;1266;67204;-88
2023/09/30 00:09:05;;;;;;;;;;;;;;;24.39;31.10;100949.27;108655;1265;559645;-92
2023/09/30 00:11:30;;;;;;;;;;;;;;;24.39;30.96;100947.48;109046;1266;67770;-89
2023/09/30 00:13:56;;;;;;;;;;;;;;;24.39;31.19;100943.84;109076;1266;67066;-89
2023/09/30 00:16:21;;;;;;;;;;;;;;;24.38;31.17;100944.49;108985;1265;67620;-90
2023/09/30 00:18:47;;;;;;;;;;;;;;;24.38;31.01;100940.95;109007;1265;67525;-89
2023/09/30 00:21:12;;;;;;;;;;;;;;;24.38;31.21;100942.65;109137;1266;67568;-89
2023/09/30 00:23:38;;;;;;;;;;;;;;;24.37;31.05;100936.02;109090;1267;67556;-89
2023/09/30 00:26:03;;;;;;;;;;;;;;;24.37;31.20;100938.44;108946;1266;66879;-90
2023/09/30 00:28:29;;;;;;;;;;;;;;;24.37;31.20;100936.63;109049;1266;67857;-89
2023/09/30 00:30:54;;;;;;;;;;;;;;;24.37;31.09;100938.13;109039;1266;67550;-90
2023/09/30 00:33:20;;;;;;;;;;;;;;;24.37;31.09;100937.67;109033;1266;74111;-89
2023/09/30 00:35:46;;;;;;;;;;;;;;;24.36;31.13;100935.77;109047;1266;67463;-89
2023/09/30 00:38:11;;;;;;;;;;;;;;;24.36;31.25;100939.16;108938;1266;67908;-88
2023/09/30 00:40:36;;;;;;;;;;;;;;;24.36;31.08;100937.88;109042;1267;67492;-89
2023/09/30 00:45:39;;;;;;;;;;;;;;;24.35;31.15;100936.34;108949;1267;67560;-89
2023/09/30 00:48:04;;;;;;;;;;;;;;;24.35;31.23;100933.96;108958;1267;67628;-89
2023/09/30 00:50:30;;;;;;;;;;;;;;;24.35;31.15;100933.35;108992;1266;67596;-89
2023/09/30 00:52:55;;;;;;;;;;;;;;;24.35;31.10;100934.48;108955;1267;67606;-89
2023/09/30 00:55:21;;;;;;;;;;;;;;;24.34;31.24;100935.27;108999;1267;67675;-88
2023/09/30 00:57:46;;;;;;;;;;;;;;;24.34;31.25;100931.41;108986;1267;66915;-89
2023/09/30 01:00:12;;;;;;;;;;;;;;;24.34;31.13;100932.27;108892;1269;67694;-89
2023/09/30 01:02:44;;;;;;;;;;;;;;;24.34;31.31;100930.53;108705;1269;545076;-93
2023/09/30 01:13:14;;;;;;;;;;;;;;;24.32;31.32;100920.30;108526;1268;557384;-91
2023/09/30 01:15:39;;;;;;;;;;;;;;;24.32;31.34;100920.98;109068;1266;67401;-89
2023/09/30 01:18:05;;;;;;;;;;;;;;;24.31;31.37;100923.50;109151;1266;67866;-89
2023/09/30 01:20:31;;;;;;;;;;;;;;;24.32;31.39;100924.64;109153;1266;66887;-89
2023/09/30 01:22:57;;;;;;;;;;;;;;;24.32;31.32;100922.39;109075;1266;67645;-89
2023/09/30 01:25:22;;;;;;;;;;;;;;;24.31;31.37;100921.36;109109;1266;67486;-88
2023/09/30 01:27:47;;;;;;;;;;;;;;;24.31;31.39;100923.48;108951;1266;75190;-88
2023/09/30 01:30:13;;;;;;;;;;;;;;;24.31;31.40;100922.14;108135;1268;555320;-89
2023/09/30 01:32:39;;;;;;;;;;;;;;;24.30;31.55;100920.38;108918;1267;67606;-88
2023/09/30 01:35:05;;;;;;;;;;;;;;;24.30;31.42;100919.52;108952;1268;67302;-88
2023/09/30 01:37:30;;;;;;;;;;;;;;;24.30;31.50;100918.08;108935;1267;67832;-88
2023/09/30 01:42:38;;;;;;;;;;;;;;;24.29;31.41;100923.22;108518;1267;553441;-89
2023/09/30 01:45:04;;;;;;;;;;;;;;;24.29;31.41;100919.11;109014;1266;67483;-90
2023/09/30 01:47:29;;;;;;;;;;;;;;;24.28;31.57;100916.23;109037;1267;67596;-89
2023/09/30 01:49:55;;;;;;;;;;;;;;;24.28;31.43;100913.46;108980;1267;67753;-89
2023/09/30 01:52:20;;;;;;;;;;;;;;;24.28;31.64;100915.27;108960;1267;66851;-89
2023/09/30 01:54:46;;;;;;;;;;;;;;;24.27;31.53;100912.95;108898;1267;67622;-90
2023/09/30 01:57:11;;;;;;;;;;;;;;;24.27;31.55;100914.34;108987;1266;67486;-89
2023/09/30 01:59:37;;;;;;;;;;;;;;;24.27;31.55;100914.75;108971;1267;67610;-90
2023/09/30 02:02:02;;;;;;;;;;;;;;;24.27;31.57;100915.27;108966;1267;67725;-90
2023/09/30 02:04:28;;;;;;;;;;;;;;;24.26;31.53;100912.55;108998;1267;67455;-89
2023/09/30 02:06:53;;;;;;;;;;;;;;;24.27;31.69;100918.10;109127;1267;67409;-90
2023/09/30 02:09:19;;;;;;;;;;;;;;;24.26;31.47;100919.74;109073;1267;67511;-89
2023/09/30 02:11:44;;;;;;;;;;;;;;;24.26;31.59;100918.77;108922;1267;67582;-90
2023/09/30 02:14:11;;;;;;;;;;;;;;;24.26;31.68;100918.83;108875;1267;67540;-89
2023/09/30 02:16:38;;;;;;;;;;;;;;;24.26;31.66;100918.98;109013;1267;67478;-89
2023/09/30 02:19:03;;;;;;;;;;;;;;;24.25;31.72;100921.75;108909;1271;67720;-90
2023/09/30 02:21:28;;;;;;;;;;;;;;;24.25;31.77;100916.35;108987;1267;67165;-89
2023/09/30 02:23:54;;;;;;;;;;;;;;;24.25;31.64;100914.31;109042;1267;67550;-89
2023/09/30 02:26:21;;;;;;;;;;;;;;;24.25;31.63;100911.48;108900;1267;66960;-89
2023/09/30 02:28:47;;;;;;;;;;;;;;;24.24;31.58;100915.80;108971;1267;67766;-89
2023/09/30 02:34:06;;;;;;;;;;;;;;;24.24;31.65;100915.75;108689;1265;552022;-89
2023/09/30 02:36:32;;;;;;;;;;;;;;;24.23;31.76;100915.02;109129;1266;67477;-90
2023/09/30 02:38:58;;;;;;;;;;;;;;;24.24;31.76;100917.34;109066;1265;67582;-89
2023/09/30 02:41:24;;;;;;;;;;;;;;;24.23;31.75;100914.58;109012;1265;67872;-89
2023/09/30 02:43:49;;;;;;;;;;;;;;;24.23;31.80;100910.97;109141;1265;67429;-89
2023/09/30 02:49:07;;;;;;;;;;;;;;;24.22;31.80;100909.67;108287;1265;554268;-91
2023/09/30 02:54:18;;;;;;;;;;;;;;;24.22;31.71;100911.02;108702;1266;553496;-89
2023/09/30 02:56:46;;;;;;;;;;;;;;;24.21;31.76;100907.27;108271;1265;560124;-88
2023/09/30 02:59:18;;;;;;;;;;;;;;;24.21;31.76;100905.83;108619;1266;557679;-93
2023/09/30 03:01:47;;;;;;;;;;;;;;;24.21;31.84;100902.86;109187;1265;67587;-89
2023/09/30 03:06:56;;;;;;;;;;;;;;;24.20;31.69;100905.33;108568;1266;555287;-90
2023/09/30 03:09:22;;;;;;;;;;;;;;;24.20;31.90;100906.31;109114;1265;67531;-88
2023/09/30 03:11:48;;;;;;;;;;;;;;;24.20;31.92;100910.38;109094;1265;66820;-89
2023/09/30 03:14:16;;;;;;;;;;;;;;;24.20;31.80;100909.66;108885;1269;554910;-93
2023/09/30 03:19:21;;;;;;;;;;;;;;;24.20;31.88;100909.05;108983;1265;74274;-89
2023/09/30 03:21:50;;;;;;;;;;;;;;;24.19;31.85;100909.71;108764;1265;559632;-91
2023/09/30 03:24:15;;;;;;;;;;;;;;;24.19;31.83;100907.24;109005;1266;66884;-89
2023/09/30 03:26:41;;;;;;;;;;;;;;;24.19;31.91;100907.40;108229;1267;554484;-87
2023/09/30 03:29:08;;;;;;;;;;;;;;;24.18;31.80;100911.98;109020;1265;66912;-89
2023/09/30 03:31:34;;;;;;;;;;;;;;;24.18;31.78;100909.73;108921;1265;67519;-89
2023/09/30 03:34:00;;;;;;;;;;;;;;;24.18;32.04;100907.30;108918;1266;67588;-89
2023/09/30 03:39:14;;;;;;;;;;;;;;;24.17;31.95;100907.21;108584;1265;559523;-89
2023/09/30 03:41:40;;;;;;;;;;;;;;;24.16;32.00;100907.71;108327;1266;558762;-88
2023/09/30 03:46:38;;;;;;;;;;;;;;;24.16;31.94;100906.39;108714;1265;554664;-88
2023/09/30 03:49:04;;;;;;;;;;;;;;;24.15;31.88;100907.21;109153;1265;67549;-90
2023/09/30 03:51:33;;;;;;;;;;;;;;;24.15;31.81;100908.09;109157;1265;66859;-93
2023/09/30 03:53:58;;;;;;;;;;;;;;;24.15;31.97;100905.58;109134;1265;67547;-89
2023/09/30 03:56:25;;;;;;;;;;;;;;;24.15;32.03;100910.21;108903;1268;67836;-89
2023/09/30 03:58:51;;;;;;;;;;;;;;;24.15;32.05;100906.25;109063;1266;67729;-90
2023/09/30 04:01:16;;;;;;;;;;;;;;;24.14;31.87;100907.64;109089;1266;67747;-89
2023/09/30 04:03:45;;;;;;;;;;;;;;;24.14;31.95;100910.83;108703;1264;554676;-92
2023/09/30 04:06:11;;;;;;;;;;;;;;;24.13;31.95;100913.45;109160;1265;67547;-89
2023/09/30 04:08:36;;;;;;;;;;;;;;;24.13;31.89;100916.83;109152;1265;67447;-89
2023/09/30 04:11:03;;;;;;;;;;;;;;;24.12;32.14;100914.42;109096;1265;67813;-89
2023/09/30 04:13:29;;;;;;;;;;;;;;;24.13;32.08;100915.77;109039;1266;67537;-89
2023/09/30 04:15:54;;;;;;;;;;;;;;;24.12;32.07;100922.30;109192;1266;67473;-89
2023/09/30 04:20:49;;;;;;;;;;;;;;;24.11;32.07;100923.23;109083;1265;67421;-89
2023/09/30 04:23:15;;;;;;;;;;;;;;;24.12;32.02;100928.06;109084;1265;68811;-89
2023/09/30 04:25:40;;;;;;;;;;;;;;;24.11;31.93;100928.83;109134;1265;67683;-89
2023/09/30 04:28:07;;;;;;;;;;;;;;;24.11;32.09;100929.70;109076;1265;68614;-90
2023/09/30 04:30:32;;;;;;;;;;;;;;;24.10;32.11;100930.07;109068;1265;67728;-87
2023/09/30 04:32:58;;;;;;;;;;;;;;;24.10;32.25;100930.89;109164;1266;67849;-90
2023/09/30 04:35:26;;;;;;;;;;;;;;;24.10;32.10;100931.67;108436;1265;555279;-89
2023/09/30 04:40:26;;;;;;;;;;;;;;;24.10;32.06;100935.20;108552;1266;559245;-89
2023/09/30 04:42:54;;;;;;;;;;;;;;;24.10;32.05;100936.80;109001;1265;67011;-89
2023/09/30 04:45:24;;;;;;;;;;;;;;;24.10;32.18;100939.02;108999;1266;67532;-92
2023/09/30 04:47:50;;;;;;;;;;;;;;;24.09;32.16;100937.42;109142;1266;66989;-88
2023/09/30 04:50:15;;;;;;;;;;;;;;;24.09;32.09;100938.10;109119;1265;66933;-89
2023/09/30 04:52:41;;;;;;;;;;;;;;;24.09;32.17;100938.45;109093;1265;67716;-89
2023/09/30 04:55:08;;;;;;;;;;;;;;;24.08;32.11;100941.39;109097;1265;67551;-89
2023/09/30 04:57:33;;;;;;;;;;;;;;;24.08;32.14;100942.93;109012;1264;67510;-88
2023/09/30 04:59:59;;;;;;;;;;;;;;;24.08;32.15;100943.33;109025;1265;67640;-88
2023/09/30 05:02:24;;;;;;;;;;;;;;;24.08;32.29;100941.48;109153;1265;67593;-89
2023/09/30 05:04:50;;;;;;;;;;;;;;;24.08;32.07;100940.61;108979;1266;67586;-89
2023/09/30 05:07:15;;;;;;;;;;;;;;;24.08;32.15;100945.14;108970;1265;66907;-89
2023/09/30 05:09:42;;;;;;;;;;;;;;;24.08;32.20;100940.77;108921;1266;67808;-88
2023/09/30 05:14:48;;;;;;;;;;;;;;;24.08;32.30;100944.27;108660;1265;554012;-89
2023/09/30 05:17:13;;;;;;;;;;;;;;;24.07;32.14;100941.56;109062;1266;67656;-88
2023/09/30 05:19:39;;;;;;;;;;;;;;;24.07;32.22;100943.00;109116;1265;67239;-90
2023/09/30 05:24:40;;;;;;;;;;;;;;;24.08;32.20;100943.90;108765;1265;553744;-90
2023/09/30 05:29:34;;;;;;;;;;;;;;;24.08;32.39;100942.77;109104;1266;66972;-89
2023/09/30 05:32:03;;;;;;;;;;;;;;;24.08;32.39;100949.41;108764;1265;559667;31
2023/09/30 05:34:28;;;;;;;;;;;;;;;24.08;32.33;100946.53;109119;1265;67768;-90
2023/09/30 05:36:54;;;;;;;;;;;;;;;24.08;32.36;100945.40;109147;1266;66865;-90
2023/09/30 05:39:22;;;;;;;;;;;;;;;24.08;32.38;100950.49;106947;1264;5182141;-89
2023/09/30 05:41:48;;;;;;;;;;;;;;;24.08;32.34;100951.06;109177;1266;67588;-90
2023/09/30 05:44:16;;;;;;;;;;;;;;;24.07;32.30;100947.32;108454;1266;557171;-89
2023/09/30 05:46:43;;;;;;;;;;;;;;;24.08;32.30;100950.90;109127;1265;67729;-89
2023/09/30 05:54:19;;;;;;;;;;;;;;;24.09;32.22;100957.58;108674;1266;554698;-88
2023/09/30 05:56:45;;;;;;;;;;;;;;;24.09;32.27;100961.43;109129;1266;67571;-90
2023/09/30 05:59:10;;;;;;;;;;;;;;;24.09;32.28;100963.08;109174;1265;67527;-89
2023/09/30 06:01:36;;;;;;;;;;;;;;;24.09;32.42;100968.38;109193;1266;67483;-90
2023/09/30 06:04:01;;;;;;;;;;;;;;;24.09;32.42;100964.98;109051;1265;67794;-89
2023/09/30 06:06:29;;;;;;;;;;;;;;;24.10;32.38;100966.63;109125;1265;66969;-87
2023/09/30 06:11:37;;;;;;;;;;;;;;;24.12;32.33;100968.27;108641;1265;554252;-87
2023/09/30 06:14:02;;;;;;;;;;;;;;;24.12;32.43;100965.84;108976;1267;67479;-89
2023/09/30 06:16:28;;;;;;;;;;;;;;;24.13;32.29;100969.80;109014;1267;67672;-90
2023/09/30 06:18:54;;;;;;;;;;;;;;;24.14;32.27;100971.59;109022;1267;67453;-90
2023/09/30 06:21:20;;;;;;;;;;;;;;;24.13;32.43;100971.43;108884;1267;67636;-90
2023/09/30 06:23:48;;;;;;;;;;;;;;;24.13;32.39;100972.98;109028;1266;67736;-89
2023/09/30 06:26:15;;;;;;;;;;;;;;;24.14;32.29;100974.71;109030;1266;67505;-90
2023/09/30 06:28:43;;;;;;;;;;;;;;;24.13;32.33;100974.27;109021;1266;67532;-89
2023/09/30 06:31:08;;;;;;;;;;;;;;;24.14;32.29;100973.89;108955;1268;67033;-89
2023/09/30 06:33:38;;;;;;;;;;;;;;;24.15;32.33;100973.75;109002;1267;67522;-89
2023/09/30 06:38:50;;;;;;;;;;;;;;;24.17;32.36;100974.52;109055;1267;67680;-89
2023/09/30 06:41:18;;;;;;;;;;;;;;;24.18;32.30;100978.71;109046;1267;67478;-89
2023/09/30 06:43:44;;;;;;;;;;;;;;;24.19;32.41;100979.08;109058;1267;67958;-89
2023/09/30 06:46:09;;;;;;;;;;;;;;;24.19;32.25;100977.02;109043;1267;67679;-89
2023/09/30 06:48:40;;;;;;;;;;;;;;;24.20;32.40;100980.23;108937;1267;67552;-89
2023/09/30 06:51:06;;;;;;;;;;;;;;;24.20;32.42;100977.58;108943;1267;67468;-89
2023/09/30 06:53:31;;;;;;;;;;;;;;;24.21;32.38;100983.78;108997;1267;67564;-89
2023/09/30 06:56:01;;;;;;;;;;;;;;;24.22;32.29;100981.27;108946;1267;67387;-90
2023/09/30 06:58:30;;;;;;;;;;;;;;;24.23;32.41;100981.40;108904;1267;75412;-88
2023/09/30 07:00:56;;;;;;;;;;;;;;;24.23;32.37;100981.63;108976;1267;66995;-88
2023/09/30 07:03:21;;;;;;;;;;;;;;;24.24;32.43;100984.27;109010;1266;67637;-88
2023/09/30 07:05:51;;;;;;;;;;;;;;;24.25;32.46;100988.29;109020;1267;67490;31
2023/09/30 07:08:17;;;;;;;;;;;;;;;24.25;32.45;100990.20;108962;1266;67617;-89
2023/09/30 07:10:52;;;;;;;;;;;;;;;24.26;32.40;100991.42;108994;1267;67464;-89
2023/09/30 07:13:20;;;;;;;;;;;;;;;24.27;32.46;100993.78;109024;1267;66952;-89
2023/09/30 07:15:47;;;;;;;;;;;;;;;24.28;32.34;100995.02;109018;1267;67833;-89
2023/09/30 07:18:12;;;;;;;;;;;;;;;24.28;32.35;100992.80;109030;1266;67835;-89
2023/09/30 07:23:18;;;;;;;;;;;;;;;24.29;32.31;100995.33;108957;1267;74272;-89
2023/09/30 07:25:43;;;;;;;;;;;;;;;24.30;32.33;100994.90;109038;1266;67511;-89
2023/09/30 07:28:11;;;;;;;;;;;;;;;24.31;32.45;100995.72;109058;1266;67707;-89
2023/09/30 07:30:37;;;;;;;;;;;;;;;24.31;32.33;100994.63;109025;1267;67790;-89
2023/09/30 07:33:03;;;;;;;;;;;;;;;24.32;32.23;100991.28;108994;1266;67606;-88
2023/09/30 07:35:28;;;;;;;;;;;;;;;24.33;32.28;100988.70;108972;1267;67729;-89
2023/09/30 07:37:53;;;;;;;;;;;;;;;24.33;32.32;100987.31;108952;1267;67716;-89
2023/09/30 07:40:19;;;;;;;;;;;;;;;24.34;32.29;100987.21;109026;1265;67613;-88
2023/09/30 07:42:45;;;;;;;;;;;;;;;24.34;32.31;100986.42;109082;1265;67633;-89
2023/09/30 07:47:49;;;;;;;;;;;;;;;24.35;32.25;100985.35;108584;1265;558873;-88
2023/09/30 07:50:14;;;;;;;;;;;;;;;24.35;32.24;100983.39;109024;1266;67559;-89
2023/09/30 07:52:41;;;;;;;;;;;;;;;24.36;32.28;100983.23;108928;1266;67545;-89
2023/09/30 07:55:06;;;;;;;;;;;;;;;24.36;32.22;100985.39;109085;1265;67624;-89
2023/09/30 07:57:33;;;;;;;;;;;;;;;24.37;32.40;100985.75;108933;1266;67639;-89
2023/09/30 07:59:58;;;;;;;;;;;;;;;24.37;32.41;100988.06;109004;1265;67527;-89
2023/09/30 08:02:27;;;;;;;;;;;;;;;24.38;32.28;100988.16;109126;1265;67537;-89
2023/09/30 08:04:57;;;;;;;;;;;;;;;24.38;32.08;100992.73;109123;1265;67397;-90
2023/09/30 08:07:26;;;;;;;;;;;;;;;24.39;32.31;100988.27;109079;1266;67628;-89
2023/09/30 08:09:51;;;;;;;;;;;;;;;24.39;32.12;100986.20;109051;1266;74910;-89
2023/09/30 08:12:21;;;;;;;;;;;;;;;24.39;32.11;100984.80;108690;1266;559413;-93
2023/09/30 08:14:46;;;;;;;;;;;;;;;24.40;32.21;100985.02;109194;1266;67285;-89
2023/09/30 08:17:11;;;;;;;;;;;;;;;24.40;32.17;100985.94;109188;1265;67630;-88
2023/09/30 08:19:39;;;;;;;;;;;;;;;24.41;32.26;100981.77;108991;1266;67146;-89
2023/09/30 08:22:06;;;;;;;;;;;;;;;24.41;32.25;100982.38;109146;1266;67641;-89
2023/09/30 08:24:36;;;;;;;;;;;;;;;24.42;32.26;100985.05;108785;1266;554131;-93
2023/09/30 08:35:07;;;;;;;;;;;;;;;24.45;32.27;100981.59;108693;1266;553733;-89
2023/09/30 08:37:32;;;;;;;;;;;;;;;24.46;32.13;100981.12;109061;1266;66868;-89
2023/09/30 08:39:58;;;;;;;;;;;;;;;24.47;32.15;100976.68;109159;1265;67503;-89
2023/09/30 08:42:31;;;;;;;;;;;;;;;24.48;32.08;100976.21;109138;1266;67621;-89
2023/09/30 08:45:03;;;;;;;;;;;;;;;24.49;31.93;100976.42;108636;1267;554558;-93
2023/09/30 08:47:40;;;;;;;;;;;;;;;24.49;32.15;100971.95;109057;1266;74267;31
2023/09/30 08:50:06;;;;;;;;;;;;;;;24.50;32.05;100972.20;108959;1266;67668;-89
2023/09/30 08:52:33;;;;;;;;;;;;;;;24.51;31.95;100971.67;108911;1266;67605;-89
2023/09/30 08:55:06;;;;;;;;;;;;;;;24.51;31.97;100967.05;108806;1265;554805;-92
2023/09/30 08:57:44;;;;;;;;;;;;;;;24.51;31.95;100970.80;108767;1265;558409;-93
2023/09/30 09:00:12;;;;;;;;;;;;;;;24.52;32.06;100968.29;109033;1266;74363;-89
2023/09/30 09:08:00;;;;;;;;;;;;;;;24.53;32.06;100973.15;108639;1266;553695;-89
2023/09/30 09:13:06;;;;;;;;;;;;;;;24.55;32.08;100964.96;109191;1266;74323;-89
2023/09/30 09:15:34;;;;;;;;;;;;;;;24.55;32.01;100971.39;109033;1266;67569;-89
2023/09/30 09:18:03;;;;;;;;;;;;;;;24.56;31.98;100967.73;109018;1266;67790;-89
2023/09/30 09:20:46;;;;;;;;;;;;;;;24.56;31.87;100964.84;108720;1265;557187;-92
2023/09/30 09:25:55;;;;;;;;;;;;;;;24.57;31.81;100959.27;108989;1268;74355;-89
2023/09/30 09:31:27;;;;;;;;;;;;;;;24.58;31.58;100958.45;109103;1266;66909;-89
2023/09/30 09:33:54;;;;;;;;;;;;;;;24.59;31.76;100953.98;109120;1265;67658;-88
2023/09/30 09:36:20;;;;;;;;;;;;;;;24.59;31.50;100953.30;109118;1265;67534;-89
2023/09/30 09:44:26;;;;;;;;;;;;;;;24.61;31.52;100946.45;108965;1268;67147;31
2023/09/30 09:46:52;;;;;;;;;;;;;;;24.62;31.63;100940.73;109067;1266;67476;-89
2023/09/30 09:49:21;;;;;;;;;;;;;;;24.62;31.60;100942.63;109200;1266;66974;-89
2023/09/30 09:54:35;;;;;;;;;;;;;;;24.62;31.59;100941.09;108850;1266;570101;-91
2023/09/30 09:57:04;;;;;;;;;;;;;;;24.64;31.52;100939.33;109167;1264;67656;-90
2023/09/30 10:07:45;;;;;;;;;;;;;;;24.66;31.17;100935.50;109173;1265;66944;-89
2023/09/30 10:10:13;;;;;;;;;;;;;;;24.68;31.24;100933.48;109262;1266;66987;-89
2023/09/30 10:12:39;;;;;;;;;;;;;;;24.68;31.27;100925.75;109114;1266;67321;-90
2023/09/30 10:15:23;;;;;;;;;;;;;;;24.68;31.27;100929.50;109108;1266;67541;-89
2023/09/30 10:17:59;;;;;;;;;;;;;;;24.69;31.19;100930.84;109095;1266;74103;-89
2023/09/30 10:20:28;;;;;;;;;;;;;;;24.70;31.33;100928.77;108994;1264;67883;-88
2023/09/30 10:25:46;;;;;;;;;;;;;;;24.70;31.10;100922.40;109007;1267;67632;-89
2023/09/30 10:28:31;;;;;;;;;;;;;;;24.71;30.96;100915.10;109197;1264;66935;-89
2023/09/30 10:31:12;;;;;;;;;;;;;;;24.72;31.01;100909.38;109233;1264;82917;-89
2023/09/30 10:33:58;;;;;;;;;;;;;;;24.72;30.89;100901.63;109233;1264;67605;-89
2023/09/30 10:36:33;;;;;;;;;;;;;;;24.72;30.89;100911.45;109189;1264;67014;-89
2023/09/30 10:38:58;;;;;;;;;;;;;;;24.73;30.85;100904.02;109048;1265;67126;-89
2023/09/30 10:41:45;;;;;;;;;;;;;;;24.73;30.77;100902.42;109147;1264;66860;-89
2023/09/30 10:44:32;;;;;;;;;;;;;;;24.73;30.77;100898.11;109202;1264;75440;-88
2023/09/30 10:49:32;;;;;;;;;;;;;;;24.74;30.90;100896.66;109021;1266;67613;-89
2023/09/30 10:51:59;;;;;;;;;;;;;;;24.74;30.66;100894.82;109170;1264;67650;-89
2023/09/30 10:54:25;;;;;;;;;;;;;;;24.74;30.77;100898.41;109273;1266;67895;-89
2023/09/30 10:56:52;;;;;;;;;;;;;;;24.75;30.84;100892.64;109223;1264;67517;-89
2023/09/30 10:59:36;;;;;;;;;;;;;;;24.75;30.73;100887.85;108698;1264;559771;-92
2023/09/30 11:02:01;;;;;;;;;;;;;;;24.75;30.72;100880.55;109204;1264;66827;-90
2023/09/30 11:04:28;;;;;;;;;;;;;;;24.76;30.68;100875.19;109193;1264;67553;-89
2023/09/30 11:06:53;;;;;;;;;;;;;;;24.77;30.59;100873.73;109252;1264;66941;-88
2023/09/30 11:11:53;;;;;;;;;;;;;;;24.78;30.57;100874.14;108934;1264;554473;-89
2023/09/30 11:14:22;;;;;;;;;;;;;;;24.78;30.48;100868.64;109200;1269;66879;-88
2023/09/30 11:19:16;;;;;;;;;;;;;;;24.79;30.32;100862.81;109403;1264;66851;-89
2023/09/30 11:21:42;;;;;;;;;;;;;;;24.78;30.53;100861.48;109283;1267;66978;-88
2023/09/30 11:24:08;;;;;;;;;;;;;;;24.80;30.35;100861.77;109102;1266;67112;-89
2023/09/30 11:26:33;;;;;;;;;;;;;;;24.80;30.39;100864.56;109206;1264;67108;-89
2023/09/30 11:29:10;;;;;;;;;;;;;;;24.80;30.38;100861.97;109184;1264;67526;-88
2023/09/30 11:34:33;;;;;;;;;;;;;;;24.81;30.30;100856.09;109232;1267;74306;-88
2023/09/30 11:37:00;;;;;;;;;;;;;;;24.81;30.12;100851.31;109388;1264;67103;-88
2023/09/30 11:39:26;;;;;;;;;;;;;;;24.82;30.02;100853.77;109201;1266;66894;-88
2023/09/30 11:41:52;;;;;;;;;;;;;;;24.82;30.04;100854.68;109256;1264;67114;-89
2023/09/30 11:44:17;;;;;;;;;;;;;;;24.82;30.14;100846.92;109188;1264;67935;-89
2023/09/30 11:52:26;;;;;;;;;;;;;;;24.83;30.04;100834.71;108984;1267;67428;-89
2023/09/30 11:54:51;;;;;;;;;;;;;;;24.84;30.02;100827.40;108969;1267;67703;-89
2023/09/30 11:57:16;;;;;;;;;;;;;;;24.84;29.94;100825.60;109061;1264;67857;-89
2023/09/30 11:59:42;;;;;;;;;;;;;;;24.85;29.97;100821.00;109019;1266;67055;-89
2023/09/30 12:02:11;;;;;;;;;;;;;;;24.85;30.05;100817.92;108554;1264;554839;-92
2023/09/30 12:07:23;;;;;;;;;;;;;;;24.85;30.00;100816.00;108783;1264;559568;-89
2023/09/30 12:09:49;;;;;;;;;;;;;;;24.86;30.05;100811.38;109208;1264;67622;-89
2023/09/30 12:12:20;;;;;;;;;;;;;;;24.87;29.99;100810.33;108878;1264;559739;-91
2023/09/30 12:14:56;;;;;;;;;;;;;;;24.87;29.93;100806.37;108880;1264;557398;-91
2023/09/30 12:17:22;;;;;;;;;;;;;;;24.87;29.85;100805.70;109233;1264;67171;-90
2023/09/30 12:19:48;;;;;;;;;;;;;;;24.88;29.89;100798.85;109258;1264;67611;-87
2023/09/30 12:22:13;;;;;;;;;;;;;;;24.88;30.00;100796.63;109148;1264;66870;-91
2023/09/30 12:24:39;;;;;;;;;;;;;;;24.88;30.04;100797.96;109279;1264;67779;-90
2023/09/30 12:27:08;;;;;;;;;;;;;;;24.89;29.87;100794.92;108842;1264;559513;-91
2023/09/30 12:29:33;;;;;;;;;;;;;;;24.89;29.93;100791.94;109008;1266;67712;-89
2023/09/30 12:32:00;;;;;;;;;;;;;;;24.90;29.92;100792.44;109148;1266;67764;-89
2023/09/30 12:40:13;;;;;;;;;;;;;;;24.91;29.80;100774.58;108691;1264;554655;-90
2023/09/30 12:42:38;;;;;;;;;;;;;;;24.92;29.64;100773.85;109165;1264;67037;-90
2023/09/30 12:45:05;;;;;;;;;;;;;;;24.92;29.86;100767.61;109215;1264;67023;-90
2023/09/30 12:47:52;;;;;;;;;;;;;;;24.93;29.84;100768.84;108823;1264;535503;-92
2023/09/30 12:50:17;;;;;;;;;;;;;;;24.93;30.05;100763.07;109018;1266;74450;-90
2023/09/30 12:52:44;;;;;;;;;;;;;;;24.94;29.80;100762.29;109108;1263;68372;-88
2023/09/30 12:55:10;;;;;;;;;;;;;;;24.94;29.95;100756.98;109094;1264;67552;-88
2023/09/30 12:57:35;;;;;;;;;;;;;;;24.95;29.62;100753.67;109160;1265;66937;-88
2023/09/30 13:00:00;;;;;;;;;;;;;;;24.96;29.72;100757.31;109177;1265;67650;-88
2023/09/30 13:02:48;;;;;;;;;;;;;;;24.96;29.67;100756.39;108638;1266;559073;-92
2023/09/30 13:05:13;;;;;;;;;;;;;;;24.97;29.93;100756.73;109002;1266;66858;-90
2023/09/30 13:07:39;;;;;;;;;;;;;;;24.97;29.82;100754.78;109157;1265;66877;-90
2023/09/30 13:10:05;;;;;;;;;;;;;;;24.97;29.76;100744.17;109146;1266;67419;-90
2023/09/30 13:12:32;;;;;;;;;;;;;;;24.98;29.68;100741.70;109139;1266;67774;-90
2023/09/30 13:14:58;;;;;;;;;;;;;;;24.99;29.65;100737.92;109017;1266;67509;-90
2023/09/30 13:17:23;;;;;;;;;;;;;;;24.98;29.58;100738.70;108941;1265;67448;-89
2023/09/30 13:19:50;;;;;;;;;;;;;;;24.98;29.60;100739.28;109002;1265;67597;-90
2023/09/30 13:22:16;;;;;;;;;;;;;;;24.97;29.73;100734.14;109052;1265;75297;-89
2023/09/30 13:25:00;;;;;;;;;;;;;;;24.97;29.65;100729.16;109030;1266;67415;-89
2023/09/30 13:27:26;;;;;;;;;;;;;;;24.98;29.48;100730.02;109035;1266;67510;-90
2023/09/30 13:29:54;;;;;;;;;;;;;;;24.97;29.52;100727.04;109109;1266;67994;-89
2023/09/30 13:32:20;;;;;;;;;;;;;;;24.97;29.55;100725.02;109191;1266;67459;-89
2023/09/30 13:34:45;;;;;;;;;;;;;;;24.97;29.51;100718.85;109134;1265;67763;-89
2023/09/30 13:37:11;;;;;;;;;;;;;;;24.97;29.61;100718.39;109122;1265;67561;-89
2023/09/30 13:39:38;;;;;;;;;;;;;;;24.98;29.57;100717.86;109139;1266;67499;-89
2023/09/30 13:42:07;;;;;;;;;;;;;;;24.98;29.63;100715.91;109124;1265;67574;-89
2023/09/30 13:44:32;;;;;;;;;;;;;;;24.98;29.65;100716.48;109130;1265;67518;-89
2023/09/30 13:46:58;;;;;;;;;;;;;;;24.97;29.40;100714.58;108931;1266;67017;-89
2023/09/30 13:49:43;;;;;;;;;;;;;;;24.97;29.35;100713.86;108631;1264;559987;-90
2023/09/30 13:52:09;;;;;;;;;;;;;;;24.97;29.49;100714.06;109141;1265;67628;-89
2023/09/30 13:54:42;;;;;;;;;;;;;;;24.96;29.32;100708.98;109135;1265;66880;-89
2023/09/30 13:57:08;;;;;;;;;;;;;;;24.96;29.49;100706.05;109048;1266;67570;-89
2023/09/30 13:59:34;;;;;;;;;;;;;;;24.95;29.29;100701.38;109105;1266;67318;-89
2023/09/30 14:02:00;;;;;;;;;;;;;;;24.95;29.48;100700.70;109150;1265;67492;-89
2023/09/30 14:04:26;;;;;;;;;;;;;;;24.95;29.49;100698.39;109146;1265;67559;-90
2023/09/30 14:06:51;;;;;;;;;;;;;;;24.94;29.38;100697.94;109052;1266;67489;-89
2023/09/30 14:09:16;;;;;;;;;;;;;;;24.94;29.54;100695.37;109082;1266;80843;-90
2023/09/30 14:11:43;;;;;;;;;;;;;;;24.93;29.36;100698.00;109106;1265;67536;-89
2023/09/30 14:14:09;;;;;;;;;;;;;;;24.93;29.42;100696.40;108950;1265;67127;-89
2023/09/30 14:16:35;;;;;;;;;;;;;;;24.93;29.48;100694.66;109077;1264;67230;-89
2023/09/30 14:19:01;;;;;;;;;;;;;;;24.92;29.37;100693.33;109153;1266;67613;-89
2023/09/30 14:21:32;;;;;;;;;;;;;;;24.92;29.42;100689.33;108896;1265;554787;-93
2023/09/30 14:24:01;;;;;;;;;;;;;;;24.91;29.48;100691.80;109094;1266;67451;-89
2023/09/30 14:26:28;;;;;;;;;;;;;;;24.91;29.21;100688.98;109076;1265;66878;-89
2023/09/30 14:28:56;;;;;;;;;;;;;;;24.91;29.40;100684.85;108796;1265;554953;-90
2023/09/30 14:31:22;;;;;;;;;;;;;;;24.91;29.43;100689.65;109128;1264;67479;-88
2023/09/30 14:33:48;;;;;;;;;;;;;;;24.90;29.33;100686.77;108986;1265;67509;-89